sensor_id;sensor_type;location;lat;lon;timestamp;pressure;altitude;pressure_sealevel;temperature;humidity
12215;BME280;6170;42.206;24.142;2023-02-18T00:01:29;99595.72;;;5.59;57.57
12215;BME280;6170;42.206;24.142;2023-02-18T00:03:56;99567.38;;;5.50;57.31
12215;BME280;6170;42.206;24.142;2023-02-18T00:06:25;99589.28;;;5.62;57.31
12215;BME280;6170;42.206;24.142;2023-02-18T00:08:53;99639.47;;;5.92;57.25
12215;BME280;6170;42.206;24.142;2023-02-18T00:11:20;99628.03;;;5.82;57.56
12215;BME280;6170;42.206;24.142;2023-02-18T00:13:54;99626.31;;;5.91;57.71
12215;BME280;6170;42.206;24.142;2023-02-18T00:16:22;99560.31;;;5.59;57.20
12215;BME280;6170;42.206;24.142;2023-02-18T00:18:51;99627.50;;;6.14;56.77
12215;BME280;6170;42.206;24.142;2023-02-18T00:21:20;99610.84;;;6.12;56.33
12215;BME280;6170;42.206;24.142;2023-02-18T00:23:47;99560.25;;;6.04;56.14
12215;BME280;6170;42.206;24.142;2023-02-18T00:26:15;99629.19;;;6.58;55.04
12215;BME280;6170;42.206;24.142;2023-02-18T00:28:43;99533.03;;;6.36;54.49
12215;BME280;6170;42.206;24.142;2023-02-18T00:31:12;99597.31;;;6.74;54.07
12215;BME280;6170;42.206;24.142;2023-02-18T00:33:40;99544.41;;;6.46;54.16
12215;BME280;6170;42.206;24.142;2023-02-18T00:36:10;99582.91;;;6.85;53.31
12215;BME280;6170;42.206;24.142;2023-02-18T00:38:37;99622.38;;;6.90;53.92
12215;BME280;6170;42.206;24.142;2023-02-18T00:41:04;99549.75;;;6.46;54.47
12215;BME280;6170;42.206;24.142;2023-02-18T00:43:32;99600.31;;;6.71;54.89
12215;BME280;6170;42.206;24.142;2023-02-18T00:45:59;99543.44;;;6.29;55.17
12215;BME280;6170;42.206;24.142;2023-02-18T00:48:27;99539.47;;;6.07;55.53
12215;BME280;6170;42.206;24.142;2023-02-18T00:50:54;99541.16;;;6.08;55.75
12215;BME280;6170;42.206;24.142;2023-02-18T00:53:21;99542.28;;;6.23;56.12
12215;BME280;6170;42.206;24.142;2023-02-18T00:55:49;99551.44;;;6.29;56.18
12215;BME280;6170;42.206;24.142;2023-02-18T00:58:16;99568.28;;;6.38;56.05
12215;BME280;6170;42.206;24.142;2023-02-18T01:00:43;99485.91;;;5.84;56.30
12215;BME280;6170;42.206;24.142;2023-02-18T01:03:11;99494.34;;;5.98;56.06
12215;BME280;6170;42.206;24.142;2023-02-18T01:05:40;99484.53;;;5.98;56.14
12215;BME280;6170;42.206;24.142;2023-02-18T01:08:09;99538.47;;;6.26;56.03
12215;BME280;6170;42.206;24.142;2023-02-18T01:10:40;99539.81;;;6.30;55.81
12215;BME280;6170;42.206;24.142;2023-02-18T01:13:07;99459.06;;;5.70;56.65
12215;BME280;6170;42.206;24.142;2023-02-18T01:15:34;99429.91;;;5.60;56.74
12215;BME280;6170;42.206;24.142;2023-02-18T01:18:01;99470.97;;;5.83;56.60
12215;BME280;6170;42.206;24.142;2023-02-18T01:20:28;99469.53;;;5.71;56.87
12215;BME280;6170;42.206;24.142;2023-02-18T01:22:56;99455.56;;;5.69;56.14
12215;BME280;6170;42.206;24.142;2023-02-18T01:25:23;99505.44;;;5.75;57.31
12215;BME280;6170;42.206;24.142;2023-02-18T01:27:50;99488.31;;;5.70;57.49
12215;BME280;6170;42.206;24.142;2023-02-18T01:30:18;99440.78;;;5.14;58.07
12215;BME280;6170;42.206;24.142;2023-02-18T01:32:45;99521.13;;;5.61;58.37
12215;BME280;6170;42.206;24.142;2023-02-18T01:35:13;99522.56;;;5.91;57.68
12215;BME280;6170;42.206;24.142;2023-02-18T01:37:41;99500.00;;;5.95;57.16
12215;BME280;6170;42.206;24.142;2023-02-18T01:40:11;99475.13;;;5.86;56.69
12215;BME280;6170;42.206;24.142;2023-02-18T01:42:39;99496.97;;;5.90;57.41
12215;BME280;6170;42.206;24.142;2023-02-18T01:45:45;99516.19;;;6.01;56.94
12215;BME280;6170;42.206;24.142;2023-02-18T01:48:16;99447.09;;;5.48;57.42
12215;BME280;6170;42.206;24.142;2023-02-18T01:50:46;99519.38;;;5.87;57.48
12215;BME280;6170;42.206;24.142;2023-02-18T01:53:19;99427.97;;;5.27;57.68
12215;BME280;6170;42.206;24.142;2023-02-18T01:55:48;99451.19;;;5.60;57.40
12215;BME280;6170;42.206;24.142;2023-02-18T01:58:16;99490.78;;;5.71;57.21
12215;BME280;6170;42.206;24.142;2023-02-18T02:00:44;99469.56;;;5.54;57.32
12215;BME280;6170;42.206;24.142;2023-02-18T02:03:10;99433.00;;;4.94;58.64
12215;BME280;6170;42.206;24.142;2023-02-18T02:05:37;99454.38;;;4.93;59.22
12215;BME280;6170;42.206;24.142;2023-02-18T02:08:05;99509.66;;;5.42;58.71
12215;BME280;6170;42.206;24.142;2023-02-18T02:10:41;99472.16;;;5.28;58.27
12215;BME280;6170;42.206;24.142;2023-02-18T02:13:19;99537.22;;;5.77;57.95
12215;BME280;6170;42.206;24.142;2023-02-18T02:15:57;99465.47;;;5.41;57.99
12215;BME280;6170;42.206;24.142;2023-02-18T02:18:39;99519.28;;;5.79;57.88
12215;BME280;6170;42.206;24.142;2023-02-18T02:24:28;99524.19;;;5.48;58.35
12215;BME280;6170;42.206;24.142;2023-02-18T02:27:11;99551.16;;;5.71;58.39
12215;BME280;6170;42.206;24.142;2023-02-18T02:30:03;99550.47;;;5.86;57.72
12215;BME280;6170;42.206;24.142;2023-02-18T02:32:46;99543.91;;;5.63;58.23
12215;BME280;6170;42.206;24.142;2023-02-18T02:35:21;99551.16;;;5.71;58.42
12215;BME280;6170;42.206;24.142;2023-02-18T02:37:54;99532.75;;;5.60;58.47
12215;BME280;6170;42.206;24.142;2023-02-18T02:40:32;99488.38;;;5.07;59.04
12215;BME280;6170;42.206;24.142;2023-02-18T02:43:08;99489.84;;;5.19;58.88
12215;BME280;6170;42.206;24.142;2023-02-18T02:45:47;99444.81;;;5.00;58.06
12215;BME280;6170;42.206;24.142;2023-02-18T02:48:23;99549.72;;;5.31;58.88
12215;BME280;6170;42.206;24.142;2023-02-18T02:50:54;99530.00;;;5.34;58.73
12215;BME280;6170;42.206;24.142;2023-02-18T02:53:29;99540.78;;;5.50;58.56
12215;BME280;6170;42.206;24.142;2023-02-18T02:55:56;99544.81;;;5.54;58.47
12215;BME280;6170;42.206;24.142;2023-02-18T02:58:23;99475.63;;;4.01;61.06
12215;BME280;6170;42.206;24.142;2023-02-18T03:01:08;99478.28;;;4.01;61.31
12215;BME280;6170;42.206;24.142;2023-02-18T03:04:06;99553.72;;;4.17;62.73
12215;BME280;6170;42.206;24.142;2023-02-18T03:06:58;99489.50;;;3.67;62.46
12215;BME280;6170;42.206;24.142;2023-02-18T03:09:33;99538.97;;;3.95;62.64
12215;BME280;6170;42.206;24.142;2023-02-18T03:12:10;99525.59;;;3.96;62.66
12215;BME280;6170;42.206;24.142;2023-02-18T03:14:44;99495.66;;;3.57;62.73
12215;BME280;6170;42.206;24.142;2023-02-18T03:17:21;99504.28;;;3.50;63.10
12215;BME280;6170;42.206;24.142;2023-02-18T03:19:54;99466.63;;;2.89;65.70
12215;BME280;6170;42.206;24.142;2023-02-18T03:22:28;99509.19;;;3.35;65.27
12215;BME280;6170;42.206;24.142;2023-02-18T03:24:56;99511.28;;;3.32;65.19
12215;BME280;6170;42.206;24.142;2023-02-18T03:27:26;99504.72;;;3.26;65.47
12215;BME280;6170;42.206;24.142;2023-02-18T03:29:58;99458.00;;;3.06;64.82
12215;BME280;6170;42.206;24.142;2023-02-18T03:32:28;99430.78;;;2.75;65.33
12215;BME280;6170;42.206;24.142;2023-02-18T03:35:00;99392.63;;;2.68;64.50
12215;BME280;6170;42.206;24.142;2023-02-18T03:37:30;99467.75;;;2.86;65.30
12215;BME280;6170;42.206;24.142;2023-02-18T03:39:59;99461.59;;;2.86;65.29
12215;BME280;6170;42.206;24.142;2023-02-18T03:42:28;99465.13;;;2.96;64.96
12215;BME280;6170;42.206;24.142;2023-02-18T03:44:55;99534.44;;;3.49;65.08
12215;BME280;6170;42.206;24.142;2023-02-18T03:47:23;99503.72;;;3.66;63.92
12215;BME280;6170;42.206;24.142;2023-02-18T03:49:50;99518.72;;;4.13;62.67
12215;BME280;6170;42.206;24.142;2023-02-18T03:52:16;99490.59;;;3.83;63.40
12215;BME280;6170;42.206;24.142;2023-02-18T03:54:45;99483.06;;;3.79;62.57
12215;BME280;6170;42.206;24.142;2023-02-18T03:57:12;99550.00;;;4.10;63.01
12215;BME280;6170;42.206;24.142;2023-02-18T03:59:39;99499.09;;;3.68;62.92
12215;BME280;6170;42.206;24.142;2023-02-18T04:02:05;99566.34;;;3.95;63.55
12215;BME280;6170;42.206;24.142;2023-02-18T04:04:32;99523.53;;;3.61;63.53
12215;BME280;6170;42.206;24.142;2023-02-18T04:06:59;99514.47;;;3.74;63.07
12215;BME280;6170;42.206;24.142;2023-02-18T04:09:26;99518.50;;;3.78;63.25
12215;BME280;6170;42.206;24.142;2023-02-18T04:11:54;99605.06;;;4.44;62.43
12215;BME280;6170;42.206;24.142;2023-02-18T04:14:21;99563.50;;;4.26;62.29
12215;BME280;6170;42.206;24.142;2023-02-18T04:16:48;99535.16;;;4.17;62.28
12215;BME280;6170;42.206;24.142;2023-02-18T04:19:15;99557.72;;;4.49;61.97
12215;BME280;6170;42.206;24.142;2023-02-18T04:21:42;99524.94;;;4.31;61.92
12215;BME280;6170;42.206;24.142;2023-02-18T04:24:09;99515.34;;;4.21;61.91
12215;BME280;6170;42.206;24.142;2023-02-18T04:26:36;99568.19;;;4.78;61.99
12215;BME280;6170;42.206;24.142;2023-02-18T04:29:04;99596.97;;;4.83;61.47
12215;BME280;6170;42.206;24.142;2023-02-18T04:31:31;99521.63;;;4.57;60.82
12215;BME280;6170;42.206;24.142;2023-02-18T04:33:58;99586.28;;;5.02;60.60
12215;BME280;6170;42.206;24.142;2023-02-18T04:36:25;99543.31;;;4.79;60.77
12215;BME280;6170;42.206;24.142;2023-02-18T04:38:52;99539.25;;;4.85;60.83
12215;BME280;6170;42.206;24.142;2023-02-18T04:41:19;99546.34;;;4.57;61.81
12215;BME280;6170;42.206;24.142;2023-02-18T04:43:45;99553.66;;;4.55;62.22
12215;BME280;6170;42.206;24.142;2023-02-18T04:46:14;99569.38;;;4.20;63.34
12215;BME280;6170;42.206;24.142;2023-02-18T04:48:41;99542.13;;;4.27;63.05
12215;BME280;6170;42.206;24.142;2023-02-18T04:51:08;99478.31;;;3.82;63.55
12215;BME280;6170;42.206;24.142;2023-02-18T04:53:34;99507.31;;;3.93;63.23
12215;BME280;6170;42.206;24.142;2023-02-18T04:56:02;99536.63;;;3.25;65.52
12215;BME280;6170;42.206;24.142;2023-02-18T04:58:29;99485.00;;;2.81;66.47
12215;BME280;6170;42.206;24.142;2023-02-18T05:00:58;99518.63;;;3.28;65.64
12215;BME280;6170;42.206;24.142;2023-02-18T05:03:27;99521.19;;;3.49;65.40
12215;BME280;6170;42.206;24.142;2023-02-18T05:05:54;99514.59;;;3.34;66.05
12215;BME280;6170;42.206;24.142;2023-02-18T05:08:21;99445.75;;;3.05;65.87
12215;BME280;6170;42.206;24.142;2023-02-18T05:10:48;99550.75;;;3.54;65.93
12215;BME280;6170;42.206;24.142;2023-02-18T05:13:15;99532.59;;;3.59;65.17
12215;BME280;6170;42.206;24.142;2023-02-18T05:15:42;99479.47;;;3.41;64.53
12215;BME280;6170;42.206;24.142;2023-02-18T05:18:09;99488.13;;;3.34;64.72
12215;BME280;6170;42.206;24.142;2023-02-18T05:20:37;99494.22;;;2.96;65.96
12215;BME280;6170;42.206;24.142;2023-02-18T05:23:04;99494.41;;;3.13;66.18
12215;BME280;6170;42.206;24.142;2023-02-18T05:25:31;99532.47;;;3.51;66.20
12215;BME280;6170;42.206;24.142;2023-02-18T05:27:58;99516.69;;;3.69;65.50
12215;BME280;6170;42.206;24.142;2023-02-18T05:30:25;99528.38;;;3.95;64.60
12215;BME280;6170;42.206;24.142;2023-02-18T05:32:52;99481.09;;;3.81;64.26
12215;BME280;6170;42.206;24.142;2023-02-18T05:35:19;99551.38;;;4.14;64.92
12215;BME280;6170;42.206;24.142;2023-02-18T05:37:47;99550.84;;;3.91;65.72
12215;BME280;6170;42.206;24.142;2023-02-18T05:40:14;99557.97;;;4.00;65.15
12215;BME280;6170;42.206;24.142;2023-02-18T05:42:43;99509.72;;;3.68;65.34
12215;BME280;6170;42.206;24.142;2023-02-18T05:45:10;99520.59;;;3.93;65.68
12215;BME280;6170;42.206;24.142;2023-02-18T05:47:37;99492.81;;;3.97;64.29
12215;BME280;6170;42.206;24.142;2023-02-18T05:50:05;99545.81;;;4.53;63.77
12215;BME280;6170;42.206;24.142;2023-02-18T05:52:32;99528.81;;;4.74;62.22
12215;BME280;6170;42.206;24.142;2023-02-18T05:55:01;99562.75;;;5.07;62.23
12215;BME280;6170;42.206;24.142;2023-02-18T05:57:27;99525.75;;;5.23;60.81
12215;BME280;6170;42.206;24.142;2023-02-18T05:59:54;99522.50;;;5.29;61.26
12215;BME280;6170;42.206;24.142;2023-02-18T06:02:21;99550.75;;;5.83;59.44
12215;BME280;6170;42.206;24.142;2023-02-18T06:04:48;99514.34;;;5.84;59.28
12215;BME280;6170;42.206;24.142;2023-02-18T06:07:15;99501.38;;;5.63;61.04
12215;BME280;6170;42.206;24.142;2023-02-18T06:09:42;99529.38;;;5.75;60.08
12215;BME280;6170;42.206;24.142;2023-02-18T06:12:11;99493.72;;;5.60;60.46
12215;BME280;6170;42.206;24.142;2023-02-18T06:14:38;99572.84;;;6.45;59.08
12215;BME280;6170;42.206;24.142;2023-02-18T06:17:06;99562.34;;;6.69;58.01
12215;BME280;6170;42.206;24.142;2023-02-18T06:19:33;99536.94;;;6.83;58.00
12215;BME280;6170;42.206;24.142;2023-02-18T06:22:00;99571.94;;;7.30;57.96
12215;BME280;6170;42.206;24.142;2023-02-18T06:24:27;99556.97;;;7.53;57.19
12215;BME280;6170;42.206;24.142;2023-02-18T06:26:54;99574.34;;;7.74;56.42
12215;BME280;6170;42.206;24.142;2023-02-18T06:29:23;99555.34;;;8.01;56.33
12215;BME280;6170;42.206;24.142;2023-02-18T06:31:50;99479.13;;;7.90;57.00
12215;BME280;6170;42.206;24.142;2023-02-18T06:34:17;99494.97;;;8.79;56.07
12215;BME280;6170;42.206;24.142;2023-02-18T06:36:43;99478.00;;;9.26;54.49
12215;BME280;6170;42.206;24.142;2023-02-18T06:39:10;99546.03;;;9.54;53.43
12215;BME280;6170;42.206;24.142;2023-02-18T06:41:37;99535.00;;;10.69;50.21
12215;BME280;6170;42.206;24.142;2023-02-18T06:44:05;99503.00;;;10.97;50.34
12215;BME280;6170;42.206;24.142;2023-02-18T06:46:33;99418.50;;;10.87;50.14
12215;BME280;6170;42.206;24.142;2023-02-18T06:49:00;99507.59;;;11.39;48.87
12215;BME280;6170;42.206;24.142;2023-02-18T06:51:27;99503.25;;;11.02;50.31
12215;BME280;6170;42.206;24.142;2023-02-18T06:53:54;99448.56;;;11.18;50.46
12215;BME280;6170;42.206;24.142;2023-02-18T06:56:21;99471.28;;;11.58;49.20
12215;BME280;6170;42.206;24.142;2023-02-18T06:58:48;99493.66;;;11.86;46.08
12215;BME280;6170;42.206;24.142;2023-02-18T07:01:15;99418.50;;;12.55;45.70
12215;BME280;6170;42.206;24.142;2023-02-18T07:03:43;99488.22;;;13.65;45.91
12215;BME280;6170;42.206;24.142;2023-02-18T07:06:10;99428.91;;;13.25;45.89
12215;BME280;6170;42.206;24.142;2023-02-18T07:08:37;99450.56;;;13.04;46.16
12215;BME280;6170;42.206;24.142;2023-02-18T07:11:04;99455.41;;;13.22;47.07
12215;BME280;6170;42.206;24.142;2023-02-18T07:13:32;99466.59;;;12.78;48.24
12215;BME280;6170;42.206;24.142;2023-02-18T07:15:59;99469.53;;;12.48;48.87
12215;BME280;6170;42.206;24.142;2023-02-18T07:18:26;99430.09;;;11.93;48.91
12215;BME280;6170;42.206;24.142;2023-02-18T07:20:54;99435.53;;;11.57;48.59
12215;BME280;6170;42.206;24.142;2023-02-18T07:23:21;99479.84;;;11.89;47.68
12215;BME280;6170;42.206;24.142;2023-02-18T07:25:48;99466.88;;;12.21;49.06
12215;BME280;6170;42.206;24.142;2023-02-18T07:28:15;99494.75;;;12.88;46.59
12215;BME280;6170;42.206;24.142;2023-02-18T07:30:42;99465.00;;;13.44;45.40
12215;BME280;6170;42.206;24.142;2023-02-18T07:33:09;99406.81;;;14.02;44.23
12215;BME280;6170;42.206;24.142;2023-02-18T07:35:36;99431.66;;;14.24;42.36
12215;BME280;6170;42.206;24.142;2023-02-18T07:38:05;99420.34;;;14.66;41.07
12215;BME280;6170;42.206;24.142;2023-02-18T07:40:32;99450.50;;;15.08;40.30
12215;BME280;6170;42.206;24.142;2023-02-18T07:42:58;99374.66;;;14.78;41.51
12215;BME280;6170;42.206;24.142;2023-02-18T07:45:26;99392.09;;;14.75;41.00
12215;BME280;6170;42.206;24.142;2023-02-18T07:47:53;99406.06;;;14.53;41.14
12215;BME280;6170;42.206;24.142;2023-02-18T07:50:20;99472.44;;;15.18;38.18
12215;BME280;6170;42.206;24.142;2023-02-18T07:52:47;99389.53;;;14.36;38.94
12215;BME280;6170;42.206;24.142;2023-02-18T07:55:16;99407.72;;;15.05;38.68
12215;BME280;6170;42.206;24.142;2023-02-18T07:57:43;99424.94;;;16.23;37.28
12215;BME280;6170;42.206;24.142;2023-02-18T08:00:25;99423.00;;;16.48;38.34
12215;BME280;6170;42.206;24.142;2023-02-18T08:02:52;99405.94;;;16.29;36.95
12215;BME280;6170;42.206;24.142;2023-02-18T08:05:19;99374.19;;;15.82;36.43
12215;BME280;6170;42.206;24.142;2023-02-18T08:07:46;99387.19;;;15.91;36.78
12215;BME280;6170;42.206;24.142;2023-02-18T08:10:13;99346.72;;;16.03;36.66
12215;BME280;6170;42.206;24.142;2023-02-18T08:12:42;99384.03;;;15.94;38.05
12215;BME280;6170;42.206;24.142;2023-02-18T08:15:09;99352.88;;;15.92;37.48
12215;BME280;6170;42.206;24.142;2023-02-18T08:17:36;99405.13;;;15.86;38.08
12215;BME280;6170;42.206;24.142;2023-02-18T08:20:04;99417.31;;;15.95;37.32
12215;BME280;6170;42.206;24.142;2023-02-18T08:22:31;99386.56;;;16.14;37.27
12215;BME280;6170;42.206;24.142;2023-02-18T08:24:58;99359.75;;;15.69;38.59
12215;BME280;6170;42.206;24.142;2023-02-18T08:27:25;99369.84;;;15.56;38.48
12215;BME280;6170;42.206;24.142;2023-02-18T08:29:54;99393.50;;;15.22;38.35
12215;BME280;6170;42.206;24.142;2023-02-18T08:32:21;99368.25;;;14.72;39.50
12215;BME280;6170;42.206;24.142;2023-02-18T08:34:48;99418.63;;;15.23;39.52
12215;BME280;6170;42.206;24.142;2023-02-18T08:37:15;99393.34;;;15.17;38.19
12215;BME280;6170;42.206;24.142;2023-02-18T08:39:42;99427.84;;;15.78;38.17
12215;BME280;6170;42.206;24.142;2023-02-18T08:42:09;99377.75;;;15.76;38.42
12215;BME280;6170;42.206;24.142;2023-02-18T08:44:36;99388.06;;;15.85;36.78
12215;BME280;6170;42.206;24.142;2023-02-18T08:47:04;99368.47;;;15.90;36.84
12215;BME280;6170;42.206;24.142;2023-02-18T08:49:31;99337.56;;;15.86;38.10
12215;BME280;6170;42.206;24.142;2023-02-18T08:52:09;99414.44;;;16.14;37.89
12215;BME280;6170;42.206;24.142;2023-02-18T08:54:36;99415.34;;;16.45;37.76
12215;BME280;6170;42.206;24.142;2023-02-18T08:57:03;99441.25;;;16.34;37.60
12215;BME280;6170;42.206;24.142;2023-02-18T08:59:30;99439.78;;;16.56;37.57
12215;BME280;6170;42.206;24.142;2023-02-18T09:01:57;99386.25;;;16.22;37.74
12215;BME280;6170;42.206;24.142;2023-02-18T09:04:25;99387.16;;;16.34;37.45
12215;BME280;6170;42.206;24.142;2023-02-18T09:06:52;99359.53;;;16.32;37.70
12215;BME280;6170;42.206;24.142;2023-02-18T09:09:19;99432.88;;;16.79;37.98
12215;BME280;6170;42.206;24.142;2023-02-18T09:11:46;99410.91;;;17.05;37.90
12215;BME280;6170;42.206;24.142;2023-02-18T09:14:14;99384.03;;;16.19;37.42
12215;BME280;6170;42.206;24.142;2023-02-18T09:16:41;99420.88;;;16.75;37.92
12215;BME280;6170;42.206;24.142;2023-02-18T09:19:08;99416.94;;;17.07;36.71
12215;BME280;6170;42.206;24.142;2023-02-18T09:21:37;99405.72;;;17.33;37.05
12215;BME280;6170;42.206;24.142;2023-02-18T09:24:04;99371.22;;;16.99;37.21
12215;BME280;6170;42.206;24.142;2023-02-18T09:26:31;99318.28;;;16.37;36.87
12215;BME280;6170;42.206;24.142;2023-02-18T09:28:58;99414.75;;;17.27;36.74
12215;BME280;6170;42.206;24.142;2023-02-18T09:31:26;99371.25;;;17.52;36.38
12215;BME280;6170;42.206;24.142;2023-02-18T09:33:54;99371.00;;;17.42;35.81
12215;BME280;6170;42.206;24.142;2023-02-18T09:36:22;99398.19;;;17.05;34.84
12215;BME280;6170;42.206;24.142;2023-02-18T09:38:50;99394.63;;;16.93;35.00
12215;BME280;6170;42.206;24.142;2023-02-18T09:41:26;99341.94;;;17.08;35.25
12215;BME280;6170;42.206;24.142;2023-02-18T09:44:01;99328.91;;;17.28;36.45
12215;BME280;6170;42.206;24.142;2023-02-18T09:46:33;99378.88;;;17.73;36.11
12215;BME280;6170;42.206;24.142;2023-02-18T09:49:03;99393.13;;;17.69;34.85
12215;BME280;6170;42.206;24.142;2023-02-18T09:51:32;99400.41;;;17.68;35.93
12215;BME280;6170;42.206;24.142;2023-02-18T09:54:03;99344.41;;;17.09;35.73
12215;BME280;6170;42.206;24.142;2023-02-18T09:56:31;99341.56;;;17.04;35.45
12215;BME280;6170;42.206;24.142;2023-02-18T09:59:03;99363.84;;;17.18;36.15
12215;BME280;6170;42.206;24.142;2023-02-18T10:01:35;99323.63;;;17.33;35.85
12215;BME280;6170;42.206;24.142;2023-02-18T10:04:06;99308.63;;;17.72;35.16
12215;BME280;6170;42.206;24.142;2023-02-18T10:06:35;99355.38;;;18.37;36.94
12215;BME280;6170;42.206;24.142;2023-02-18T10:09:11;99312.84;;;18.66;36.26
12215;BME280;6170;42.206;24.142;2023-02-18T10:11:42;99322.00;;;19.05;33.56
12215;BME280;6170;42.206;24.142;2023-02-18T10:14:12;99329.88;;;19.35;34.62
12215;BME280;6170;42.206;24.142;2023-02-18T10:16:41;99331.41;;;19.59;34.39
12215;BME280;6170;42.206;24.142;2023-02-18T10:19:20;99327.09;;;19.80;34.89
12215;BME280;6170;42.206;24.142;2023-02-18T10:21:48;99292.09;;;19.66;33.57
12215;BME280;6170;42.206;24.142;2023-02-18T10:24:27;99291.59;;;19.36;34.70
12215;BME280;6170;42.206;24.142;2023-02-18T10:26:55;99295.13;;;19.70;32.81
12215;BME280;6170;42.206;24.142;2023-02-18T10:29:25;99296.22;;;19.52;33.22
12215;BME280;6170;42.206;24.142;2023-02-18T10:32:01;99235.91;;;19.39;33.67
12215;BME280;6170;42.206;24.142;2023-02-18T10:34:38;99243.06;;;19.78;33.29
12215;BME280;6170;42.206;24.142;2023-02-18T10:37:17;99257.84;;;20.26;33.62
12215;BME280;6170;42.206;24.142;2023-02-18T10:40:02;99307.78;;;20.58;32.01
12215;BME280;6170;42.206;24.142;2023-02-18T10:42:42;99291.22;;;20.38;32.79
12215;BME280;6170;42.206;24.142;2023-02-18T10:45:20;99244.50;;;20.46;33.90
12215;BME280;6170;42.206;24.142;2023-02-18T10:47:56;99247.03;;;20.52;31.42
12215;BME280;6170;42.206;24.142;2023-02-18T10:50:29;99248.13;;;20.30;32.17
12215;BME280;6170;42.206;24.142;2023-02-18T10:53:01;99245.88;;;20.27;32.21
12215;BME280;6170;42.206;24.142;2023-02-18T10:55:36;99237.03;;;20.36;32.20
12215;BME280;6170;42.206;24.142;2023-02-18T10:58:24;99234.50;;;20.30;33.41
12215;BME280;6170;42.206;24.142;2023-02-18T11:00:52;99274.75;;;20.49;32.33
12215;BME280;6170;42.206;24.142;2023-02-18T11:03:23;99216.44;;;19.80;32.35
12215;BME280;6170;42.206;24.142;2023-02-18T11:05:54;99218.75;;;19.71;32.82
12215;BME280;6170;42.206;24.142;2023-02-18T11:08:25;99224.25;;;19.55;34.02
12215;BME280;6170;42.206;24.142;2023-02-18T11:10:54;99252.69;;;19.86;33.95
12215;BME280;6170;42.206;24.142;2023-02-18T11:13:26;99260.19;;;20.60;34.87
12215;BME280;6170;42.206;24.142;2023-02-18T11:15:59;99239.78;;;20.90;33.82
12215;BME280;6170;42.206;24.142;2023-02-18T11:18:29;99199.50;;;20.65;34.02
12215;BME280;6170;42.206;24.142;2023-02-18T11:21:00;99225.03;;;21.13;33.42
12215;BME280;6170;42.206;24.142;2023-02-18T11:23:27;99216.56;;;20.82;33.42
12215;BME280;6170;42.206;24.142;2023-02-18T11:26:00;99190.75;;;20.36;32.78
12215;BME280;6170;42.206;24.142;2023-02-18T11:28:35;99240.00;;;21.42;33.08
12215;BME280;6170;42.206;24.142;2023-02-18T11:31:07;99189.59;;;21.13;33.28
12215;BME280;6170;42.206;24.142;2023-02-18T11:33:38;99162.72;;;20.94;33.01
12215;BME280;6170;42.206;24.142;2023-02-18T11:36:18;99201.38;;;21.18;33.70
12215;BME280;6170;42.206;24.142;2023-02-18T11:38:50;99197.69;;;21.39;34.36
12215;BME280;6170;42.206;24.142;2023-02-18T11:41:27;99193.31;;;21.01;32.26
12215;BME280;6170;42.206;24.142;2023-02-18T11:43:56;99183.72;;;20.67;32.84
12215;BME280;6170;42.206;24.142;2023-02-18T11:46:25;99210.31;;;21.14;33.90
12215;BME280;6170;42.206;24.142;2023-02-18T11:48:54;99203.94;;;21.03;33.32
12215;BME280;6170;42.206;24.142;2023-02-18T11:51:23;99173.03;;;21.19;33.47
12215;BME280;6170;42.206;24.142;2023-02-18T11:54:01;99184.03;;;21.34;32.97
12215;BME280;6170;42.206;24.142;2023-02-18T11:56:32;99169.13;;;21.42;33.28
12215;BME280;6170;42.206;24.142;2023-02-18T11:59:01;99151.63;;;21.90;32.22
12215;BME280;6170;42.206;24.142;2023-02-18T12:01:35;99178.16;;;22.05;32.03
12215;BME280;6170;42.206;24.142;2023-02-18T12:04:09;99175.50;;;22.20;32.04
12215;BME280;6170;42.206;24.142;2023-02-18T12:06:45;99121.94;;;21.99;31.65
12215;BME280;6170;42.206;24.142;2023-02-18T12:09:28;99180.53;;;21.86;32.78
12215;BME280;6170;42.206;24.142;2023-02-18T12:12:01;99117.78;;;21.34;33.86
12215;BME280;6170;42.206;24.142;2023-02-18T12:14:30;99127.81;;;21.23;33.58
12215;BME280;6170;42.206;24.142;2023-02-18T12:17:25;99158.06;;;21.64;34.26
12215;BME280;6170;42.206;24.142;2023-02-18T12:20:14;99115.13;;;21.44;34.13
12215;BME280;6170;42.206;24.142;2023-02-18T12:22:47;99156.47;;;21.78;32.72
12215;BME280;6170;42.206;24.142;2023-02-18T12:25:23;99105.78;;;21.30;34.30
12215;BME280;6170;42.206;24.142;2023-02-18T12:28:03;99136.53;;;21.67;35.43
12215;BME280;6170;42.206;24.142;2023-02-18T12:30:45;99119.41;;;21.87;33.63
12215;BME280;6170;42.206;24.142;2023-02-18T12:33:24;99084.88;;;22.28;34.63
12215;BME280;6170;42.206;24.142;2023-02-18T12:36:02;99098.06;;;22.81;35.15
12215;BME280;6170;42.206;24.142;2023-02-18T12:38:53;99084.72;;;21.72;35.41
12215;BME280;6170;42.206;24.142;2023-02-18T12:41:34;99095.53;;;21.52;35.49
12215;BME280;6170;42.206;24.142;2023-02-18T12:44:16;99091.00;;;21.21;36.19
12215;BME280;6170;42.206;24.142;2023-02-18T12:47:15;99119.75;;;21.43;36.68
12215;BME280;6170;42.206;24.142;2023-02-18T12:49:59;99105.78;;;21.30;36.23
12215;BME280;6170;42.206;24.142;2023-02-18T12:52:36;99063.25;;;21.24;36.49
12215;BME280;6170;42.206;24.142;2023-02-18T12:55:30;99059.53;;;21.03;36.74
12215;BME280;6170;42.206;24.142;2023-02-18T12:58:06;99033.50;;;20.75;36.50
12215;BME280;6170;42.206;24.142;2023-02-18T13:04:01;99040.94;;;20.53;36.90
12215;BME280;6170;42.206;24.142;2023-02-18T13:06:49;99042.03;;;20.52;36.86
12215;BME280;6170;42.206;24.142;2023-02-18T13:09:27;99046.84;;;20.40;37.08
12215;BME280;6170;42.206;24.142;2023-02-18T13:12:03;98995.38;;;20.11;37.44
12215;BME280;6170;42.206;24.142;2023-02-18T13:14:38;99021.56;;;20.17;37.03
12215;BME280;6170;42.206;24.142;2023-02-18T13:17:08;99007.00;;;20.02;37.23
12215;BME280;6170;42.206;24.142;2023-02-18T13:19:43;98994.22;;;19.76;37.29
12215;BME280;6170;42.206;24.142;2023-02-18T13:22:14;99063.63;;;20.32;37.13
12215;BME280;6170;42.206;24.142;2023-02-18T13:24:44;99091.22;;;20.45;37.37
12215;BME280;6170;42.206;24.142;2023-02-18T13:27:18;99070.81;;;20.43;37.41
12215;BME280;6170;42.206;24.142;2023-02-18T13:29:47;99088.94;;;20.32;37.53